»·PEaware :: N695DS KSMX-KSBP

N695DS :: KSMX-KSBP

FLIGHT INFORMATION

Flight Status: Arrived
Operator: Privately registered:
United States
More flights under this callsign
Pilot: Christopher S. (2105)
Aircraft: Unknown
(DA62)
More flights by this aircraft type
Origin: KSMX Santa Maria Pub/Capt Hancock
United States
Destination: KSBP San Luis Co Regl
United States
More flights between these airports :: More routes between these airports
Route: MQO
File this flight plan on PilotEdge
Remarks:
Altitude:
(Current/Filed)
4,000ft
Speed:
(Current/Filed)
170kts
Departed: 11-Jan-19 07:09 PM
Arrived: 11-Jan-19 07:38 PM
Distance/Time
Traveled:
22nm/0:29
Distance/Time
To Go:
Arrived

Flight Plot

Page will automatically refresh every two minutes.


Map Options




Map Legend


Flown Route
Filed Route
Departure Airport
Arrival Airport
Navaid (VOR, NDB)
Fix

Horizontal Profiles

Position Reports

Time Latitude Longitude Heading Altitude Ground
Speed
11-Jan-19 18:47 34.900721 -120.451573 228 265ft 0kts
11-Jan-19 18:48 34.900721 -120.451573 228 265ft 0kts
11-Jan-19 18:49 34.900721 -120.451573 228 265ft 0kts
11-Jan-19 18:50 34.900721 -120.451573 228 265ft 0kts
11-Jan-19 18:51 34.900721 -120.451573 228 265ft 0kts
11-Jan-19 18:52 34.900721 -120.451573 228 265ft 0kts
11-Jan-19 18:53 34.900721 -120.451573 228 265ft 0kts
11-Jan-19 18:54 34.900721 -120.451573 228 265ft 0kts
11-Jan-19 18:55 34.900600 -120.451726 223 265ft 0kts
11-Jan-19 18:56 34.900600 -120.451726 223 265ft 0kts
11-Jan-19 18:57 34.900600 -120.451726 223 265ft 0kts
11-Jan-19 18:58 34.900601 -120.451726 223 265ft 0kts
11-Jan-19 18:59 34.900600 -120.451726 223 265ft 0kts
11-Jan-19 19:00 34.900589 -120.451738 222 265ft 1kts
11-Jan-19 19:01 34.901677 -120.454009 313 265ft 12kts
11-Jan-19 19:02 34.904888 -120.457847 319 265ft 18kts
11-Jan-19 19:03 34.908942 -120.462689 303 265ft 11kts
11-Jan-19 19:04 34.908770 -120.463539 220 265ft 0kts
11-Jan-19 19:05 34.908770 -120.463539 220 265ft 0kts
11-Jan-19 19:06 34.908472 -120.463891 241 265ft 7kts
11-Jan-19 19:07 34.907389 -120.463256 135 265ft 23kts
11-Jan-19 19:08 34.895623 -120.448591 132 1135ft 84kts
11-Jan-19 19:09 34.887142 -120.421001 113 2500ft 91kts
11-Jan-19 19:10 34.886976 -120.389545 63 3848ft 124kts
11-Jan-19 19:11 34.928143 -120.404407 313 4010ft 199kts
11-Jan-19 19:12 34.970213 -120.450088 314 4004ft 203kts
11-Jan-19 19:13 35.012420 -120.496068 313 4006ft 204kts
11-Jan-19 19:14 35.054799 -120.542422 314 3999ft 204kts
11-Jan-19 19:15 35.095668 -120.586926 312 3984ft 187kts
11-Jan-19 19:16 35.128497 -120.622848 311 3978ft 180kts
11-Jan-19 19:17 35.165373 -120.663620 311 3977ft 178kts
11-Jan-19 19:18 35.202234 -120.704559 312 3978ft 179kts
11-Jan-19 19:19 35.238350 -120.744284 311 3974ft 165kts
11-Jan-19 19:20 35.260777 -120.786974 271 3978ft 144kts
11-Jan-19 19:21 35.265896 -120.833933 262 3979ft 138kts
11-Jan-19 19:22 35.270690 -120.880804 269 3972ft 142kts
11-Jan-19 19:23 35.303745 -120.914842 321 3974ft 158kts
11-Jan-19 19:24 35.329273 -120.951468 236 3976ft 122kts
11-Jan-19 19:25 35.307316 -120.947202 142 3649ft 105kts
11-Jan-19 19:26 35.286548 -120.923806 144 3475ft 92kts
11-Jan-19 19:27 35.271791 -120.898715 111 3293ft 107kts
11-Jan-19 19:28 35.267535 -120.866547 113 3055ft 90kts
11-Jan-19 19:29 35.263217 -120.836402 113 2781ft 87kts
11-Jan-19 19:30 35.259323 -120.809106 114 2778ft 78kts
11-Jan-19 19:31 35.255405 -120.782776 114 2791ft 79kts
11-Jan-19 19:32 35.251337 -120.755760 114 2739ft 86kts
11-Jan-19 19:33 35.246954 -120.726543 112 2214ft 85kts
11-Jan-19 19:34 35.242715 -120.698221 110 1687ft 79kts
11-Jan-19 19:35 35.248504 -120.670376 104 945ft 90kts
11-Jan-19 19:36 35.240430 -120.646415 126 217ft 58kts
11-Jan-19 19:37 35.237790 -120.640452 82 216ft 4kts
11-Jan-19 19:38 35.238266 -120.639958 321 216ft 0kts
11-Jan-19 19:39 35.238266 -120.639958 321 216ft 0kts
11-Jan-19 19:40 35.238266 -120.639958 321 216ft 0kts
11-Jan-19 19:41 35.238266 -120.639958 321 216ft 0kts
11-Jan-19 19:42 35.238266 -120.639958 321 216ft 0kts
11-Jan-19 19:43 35.238266 -120.639958 321 216ft 0kts
11-Jan-19 19:44 35.238266 -120.639958 321 216ft 0kts
11-Jan-19 19:45 35.238266 -120.639958 321 216ft 0kts
11-Jan-19 19:46 35.238266 -120.639958 321 216ft 0kts
11-Jan-19 19:47 35.238266 -120.639958 321 216ft 0kts

Navigation Log

Ident Type
Flight plan parsing failed, navigation log unavailable